sensor_id;sensor_type;location;lat;lon;timestamp;temperature;humidity
15274;DHT22;7738;49.532;11.156;2022-11-20T01:43:09;-1.00;99.90
15274;DHT22;7738;49.532;11.156;2022-11-20T01:46:13;-0.90;99.90
15274;DHT22;7738;49.532;11.156;2022-11-20T01:48:50;-1.00;99.90
15274;DHT22;7738;49.532;11.156;2022-11-20T01:51:26;-1.00;99.90
15274;DHT22;7738;49.532;11.156;2022-11-20T01:53:59;-1.00;99.90
15274;DHT22;7738;49.532;11.156;2022-11-20T01:56:33;-1.00;99.90
15274;DHT22;7738;49.532;11.156;2022-11-20T01:59:06;-1.00;99.90
15274;DHT22;7738;49.532;11.156;2022-11-20T02:04:10;-0.90;99.90
15274;DHT22;7738;49.532;11.156;2022-11-20T02:06:43;-1.00;99.90
15274;DHT22;7738;49.532;11.156;2022-11-20T02:09:16;-0.90;99.90
15274;DHT22;7738;49.532;11.156;2022-11-20T02:16:46;-0.90;99.90
15274;DHT22;7738;49.532;11.156;2022-11-20T02:19:23;2.10;99.90
15274;DHT22;7738;49.532;11.156;2022-11-20T02:21:58;-0.80;99.90
15274;DHT22;7738;49.532;11.156;2022-11-20T02:24:32;-0.80;99.90
15274;DHT22;7738;49.532;11.156;2022-11-20T02:27:06;-0.80;99.90
15274;DHT22;7738;49.532;11.156;2022-11-20T02:29:39;-0.80;99.90
15274;DHT22;7738;49.532;11.156;2022-11-20T02:32:18;-0.80;99.90
15274;DHT22;7738;49.532;11.156;2022-11-20T02:37:19;-0.90;99.90
15274;DHT22;7738;49.532;11.156;2022-11-20T03:02:29;-0.70;99.90
15274;DHT22;7738;49.532;11.156;2022-11-20T03:10:03;-0.80;99.90
15274;DHT22;7738;49.532;11.156;2022-11-20T03:25:09;-0.80;99.90
15274;DHT22;7738;49.532;11.156;2022-11-20T03:30:10;-0.90;99.90
15274;DHT22;7738;49.532;11.156;2022-11-20T03:40:15;-0.80;99.90
15274;DHT22;7738;49.532;11.156;2022-11-20T03:45:16;-0.80;99.90
15274;DHT22;7738;49.532;11.156;2022-11-20T03:55:20;-0.80;99.90
15274;DHT22;7738;49.532;11.156;2022-11-20T04:00:20;-1.00;99.90
15274;DHT22;7738;49.532;11.156;2022-11-20T04:10:24;-0.90;99.90
15274;DHT22;7738;49.532;11.156;2022-11-20T04:15:24;-0.70;99.90
15274;DHT22;7738;49.532;11.156;2022-11-20T04:17:54;-0.80;99.90
15274;DHT22;7738;49.532;11.156;2022-11-20T04:20:25;-0.90;99.90
15274;DHT22;7738;49.532;11.156;2022-11-20T04:25:28;-0.90;99.90
15274;DHT22;7738;49.532;11.156;2022-11-20T04:30:28;-1.10;99.90
15274;DHT22;7738;49.532;11.156;2022-11-20T04:40:31;-0.90;99.90
15274;DHT22;7738;49.532;11.156;2022-11-20T04:43:02;-1.00;99.90
15274;DHT22;7738;49.532;11.156;2022-11-20T04:55:35;-0.80;99.90
15274;DHT22;7738;49.532;11.156;2022-11-20T04:58:06;-0.80;99.90
15274;DHT22;7738;49.532;11.156;2022-11-20T05:00:36;-0.50;99.90
15274;DHT22;7738;49.532;11.156;2022-11-20T05:10:39;-0.80;99.90
15274;DHT22;7738;49.532;11.156;2022-11-20T05:18:10;-1.00;99.90
15274;DHT22;7738;49.532;11.156;2022-11-20T05:25:43;-0.80;99.90
15274;DHT22;7738;49.532;11.156;2022-11-20T05:33:14;-0.90;99.90
15274;DHT22;7738;49.532;11.156;2022-11-20T05:38:15;-0.90;99.90
15274;DHT22;7738;49.532;11.156;2022-11-20T05:40:48;-0.80;99.90
15274;DHT22;7738;49.532;11.156;2022-11-20T05:45:52;-0.70;99.90
15274;DHT22;7738;49.532;11.156;2022-11-20T05:48:22;-0.40;99.90
15274;DHT22;7738;49.532;11.156;2022-11-20T05:56:00;-0.50;99.90
15274;DHT22;7738;49.532;11.156;2022-11-20T05:58:31;-0.70;99.90
15274;DHT22;7738;49.532;11.156;2022-11-20T06:01:06;-0.80;99.90
15274;DHT22;7738;49.532;11.156;2022-11-20T06:03:37;-0.70;99.90
15274;DHT22;7738;49.532;11.156;2022-11-20T06:11:12;-0.70;99.90
15274;DHT22;7738;49.532;11.156;2022-11-20T06:13:42;-0.70;99.90
15274;DHT22;7738;49.532;11.156;2022-11-20T06:16:15;-0.60;99.90
15274;DHT22;7738;49.532;11.156;2022-11-20T06:18:46;-0.70;99.90
15274;DHT22;7738;49.532;11.156;2022-11-20T06:21:17;-0.80;99.90
15274;DHT22;7738;49.532;11.156;2022-11-20T06:23:49;-0.70;99.90
15274;DHT22;7738;49.532;11.156;2022-11-20T06:26:23;-0.70;99.90
15274;DHT22;7738;49.532;11.156;2022-11-20T06:28:53;-0.60;99.90
15274;DHT22;7738;49.532;11.156;2022-11-20T06:31:25;-0.60;99.90
15274;DHT22;7738;49.532;11.156;2022-11-20T06:41:28;-0.60;99.90
15274;DHT22;7738;49.532;11.156;2022-11-20T06:43:59;-0.60;99.90
15274;DHT22;7738;49.532;11.156;2022-11-20T06:48:59;-0.40;99.90
15274;DHT22;7738;49.532;11.156;2022-11-20T06:54:00;-0.30;99.90
15274;DHT22;7738;49.532;11.156;2022-11-20T06:56:33;-0.50;99.90
15274;DHT22;7738;49.532;11.156;2022-11-20T06:59:04;-0.40;99.90
15274;DHT22;7738;49.532;11.156;2022-11-20T07:01:34;-0.40;99.90
15274;DHT22;7738;49.532;11.156;2022-11-20T07:04:05;-0.40;99.90
15274;DHT22;7738;49.532;11.156;2022-11-20T07:09:05;-0.60;99.90
15274;DHT22;7738;49.532;11.156;2022-11-20T07:11:41;-0.30;99.90
15274;DHT22;7738;49.532;11.156;2022-11-20T07:19:12;0.10;99.90
15274;DHT22;7738;49.532;11.156;2022-11-20T07:21:42;-0.30;99.90
15274;DHT22;7738;49.532;11.156;2022-11-20T07:24:12;-0.40;99.90
15274;DHT22;7738;49.532;11.156;2022-11-20T07:26:46;-0.30;99.90
15274;DHT22;7738;49.532;11.156;2022-11-20T07:31:46;-0.50;99.90
15274;DHT22;7738;49.532;11.156;2022-11-20T07:41:50;-0.20;99.90
15274;DHT22;7738;49.532;11.156;2022-11-20T07:46:51;-0.30;99.90
15274;DHT22;7738;49.532;11.156;2022-11-20T07:54:27;-0.20;99.90
15274;DHT22;7738;49.532;11.156;2022-11-20T07:57:00;-0.40;99.90
15274;DHT22;7738;49.532;11.156;2022-11-20T08:09:31;0.20;99.90
15274;DHT22;7738;49.532;11.156;2022-11-20T08:12:04;0.00;99.90
15274;DHT22;7738;49.532;11.156;2022-11-20T08:22:17;0.00;99.90
15274;DHT22;7738;49.532;11.156;2022-11-20T08:24:52;0.00;99.90
15274;DHT22;7738;49.532;11.156;2022-11-20T08:27:24;-0.10;99.90
15274;DHT22;7738;49.532;11.156;2022-11-20T08:29:54;0.20;99.90
15274;DHT22;7738;49.532;11.156;2022-11-20T08:32:24;-0.20;99.90
15274;DHT22;7738;49.532;11.156;2022-11-20T08:39:56;-0.30;99.90
15274;DHT22;7738;49.532;11.156;2022-11-20T08:42:29;0.00;99.90
15274;DHT22;7738;49.532;11.156;2022-11-20T08:55:07;0.30;99.90
15274;DHT22;7738;49.532;11.156;2022-11-20T08:57:40;0.20;99.90
15274;DHT22;7738;49.532;11.156;2022-11-20T09:00:17;0.20;99.90
15274;DHT22;7738;49.532;11.156;2022-11-20T09:12:54;0.20;99.90
15274;DHT22;7738;49.532;11.156;2022-11-20T09:15:25;0.10;99.90
15274;DHT22;7738;49.532;11.156;2022-11-20T09:17:56;0.20;99.90
15274;DHT22;7738;49.532;11.156;2022-11-20T09:20:28;0.20;99.90
15274;DHT22;7738;49.532;11.156;2022-11-20T09:25:29;0.20;99.90
15274;DHT22;7738;49.532;11.156;2022-11-20T09:28:02;0.10;99.90
15274;DHT22;7738;49.532;11.156;2022-11-20T09:30:33;0.20;99.90
15274;DHT22;7738;49.532;11.156;2022-11-20T09:33:04;0.20;99.90
15274;DHT22;7738;49.532;11.156;2022-11-20T09:38:05;0.00;99.90
15274;DHT22;7738;49.532;11.156;2022-11-20T09:40:40;0.20;99.90
15274;DHT22;7738;49.532;11.156;2022-11-20T09:43:19;0.20;99.90
15274;DHT22;7738;49.532;11.156;2022-11-20T09:46:00;0.20;99.90
15274;DHT22;7738;49.532;11.156;2022-11-20T09:48:45;0.20;99.90
15274;DHT22;7738;49.532;11.156;2022-11-20T09:51:26;0.20;99.90
15274;DHT22;7738;49.532;11.156;2022-11-20T09:54:10;0.20;99.90
15274;DHT22;7738;49.532;11.156;2022-11-20T09:56:46;0.10;99.90
15274;DHT22;7738;49.532;11.156;2022-11-20T09:59:23;0.10;99.90
15274;DHT22;7738;49.532;11.156;2022-11-20T10:04:28;0.10;99.90
15274;DHT22;7738;49.532;11.156;2022-11-20T10:07:13;0.20;99.90
15274;DHT22;7738;49.532;11.156;2022-11-20T10:12:37;0.20;99.90
15274;DHT22;7738;49.532;11.156;2022-11-20T10:15:23;0.20;99.90
15274;DHT22;7738;49.532;11.156;2022-11-20T10:18:21;0.10;99.90
15274;DHT22;7738;49.532;11.156;2022-11-20T10:20:57;0.40;99.90
15274;DHT22;7738;49.532;11.156;2022-11-20T10:23:59;0.40;99.90
15274;DHT22;7738;49.532;11.156;2022-11-20T10:26:40;0.40;99.90
15274;DHT22;7738;49.532;11.156;2022-11-20T10:29:14;0.40;99.90
15274;DHT22;7738;49.532;11.156;2022-11-20T10:31:50;0.40;99.90
15274;DHT22;7738;49.532;11.156;2022-11-20T10:34:24;0.40;99.90
15274;DHT22;7738;49.532;11.156;2022-11-20T10:36:58;0.40;99.90
15274;DHT22;7738;49.532;11.156;2022-11-20T10:39:35;0.40;99.90
15274;DHT22;7738;49.532;11.156;2022-11-20T10:42:11;0.30;99.90
15274;DHT22;7738;49.532;11.156;2022-11-20T10:44:43;0.40;99.90
15274;DHT22;7738;49.532;11.156;2022-11-20T10:47:36;0.40;99.90
15274;DHT22;7738;49.532;11.156;2022-11-20T10:50:11;0.40;99.90
15274;DHT22;7738;49.532;11.156;2022-11-20T10:52:55;0.40;99.90
15274;DHT22;7738;49.532;11.156;2022-11-20T10:55:32;0.40;99.90
15274;DHT22;7738;49.532;11.156;2022-11-20T10:58:10;0.50;99.90
15274;DHT22;7738;49.532;11.156;2022-11-20T11:00:44;0.60;99.90
15274;DHT22;7738;49.532;11.156;2022-11-20T11:03:25;0.50;99.90
15274;DHT22;7738;49.532;11.156;2022-11-20T11:06:01;0.40;99.90
15274;DHT22;7738;49.532;11.156;2022-11-20T11:08:36;0.40;99.90
15274;DHT22;7738;49.532;11.156;2022-11-20T11:11:18;0.50;99.90
15274;DHT22;7738;49.532;11.156;2022-11-20T11:16:21;0.60;99.90
15274;DHT22;7738;49.532;11.156;2022-11-20T11:19:03;0.60;99.90
15274;DHT22;7738;49.532;11.156;2022-11-20T11:21:34;0.50;99.90
15274;DHT22;7738;49.532;11.156;2022-11-20T11:24:18;0.40;99.90
15274;DHT22;7738;49.532;11.156;2022-11-20T11:27:14;0.40;99.90
15274;DHT22;7738;49.532;11.156;2022-11-20T11:32:17;0.40;99.90
15274;DHT22;7738;49.532;11.156;2022-11-20T11:35:02;0.40;99.90
15274;DHT22;7738;49.532;11.156;2022-11-20T11:37:34;0.50;99.90
15274;DHT22;7738;49.532;11.156;2022-11-20T11:40:06;0.80;99.90
15274;DHT22;7738;49.532;11.156;2022-11-20T11:42:54;0.90;99.90
15274;DHT22;7738;49.532;11.156;2022-11-20T11:47:56;1.20;99.90
15274;DHT22;7738;49.532;11.156;2022-11-20T11:50:29;1.40;99.90
15274;DHT22;7738;49.532;11.156;2022-11-20T11:53:08;1.40;99.90
15274;DHT22;7738;49.532;11.156;2022-11-20T11:55:43;1.40;99.90
15274;DHT22;7738;49.532;11.156;2022-11-20T11:58:28;1.70;99.90
15274;DHT22;7738;49.532;11.156;2022-11-20T12:01:07;1.90;99.90
15274;DHT22;7738;49.532;11.156;2022-11-20T12:03:40;2.00;99.90
15274;DHT22;7738;49.532;11.156;2022-11-20T12:06:14;2.00;99.90
15274;DHT22;7738;49.532;11.156;2022-11-20T12:08:50;2.00;99.90
15274;DHT22;7738;49.532;11.156;2022-11-20T12:11:29;1.90;99.90
15274;DHT22;7738;49.532;11.156;2022-11-20T12:14:04;1.70;99.90
15274;DHT22;7738;49.532;11.156;2022-11-20T12:16:41;1.60;99.90
15274;DHT22;7738;49.532;11.156;2022-11-20T12:19:13;1.60;99.90
15274;DHT22;7738;49.532;11.156;2022-11-20T12:21:55;1.50;99.90
15274;DHT22;7738;49.532;11.156;2022-11-20T12:24:42;1.40;99.90
15274;DHT22;7738;49.532;11.156;2022-11-20T12:27:38;1.40;99.90
15274;DHT22;7738;49.532;11.156;2022-11-20T12:30:14;1.30;99.90
15274;DHT22;7738;49.532;11.156;2022-11-20T12:33:08;1.20;99.90
15274;DHT22;7738;49.532;11.156;2022-11-20T12:35:51;1.20;99.90
15274;DHT22;7738;49.532;11.156;2022-11-20T12:38:45;1.20;99.90
15274;DHT22;7738;49.532;11.156;2022-11-20T12:41:27;1.20;99.90
15274;DHT22;7738;49.532;11.156;2022-11-20T12:44:23;1.10;99.90
15274;DHT22;7738;49.532;11.156;2022-11-20T12:47:16;1.20;99.90
15274;DHT22;7738;49.532;11.156;2022-11-20T12:49:59;1.20;99.90
15274;DHT22;7738;49.532;11.156;2022-11-20T12:52:38;1.10;99.90
15274;DHT22;7738;49.532;11.156;2022-11-20T12:55:21;3.80;99.90
15274;DHT22;7738;49.532;11.156;2022-11-20T12:57:57;1.10;99.90
15274;DHT22;7738;49.532;11.156;2022-11-20T13:00:30;1.10;99.90
15274;DHT22;7738;49.532;11.156;2022-11-20T13:03:23;1.10;99.90
15274;DHT22;7738;49.532;11.156;2022-11-20T13:06:05;1.10;99.90
15274;DHT22;7738;49.532;11.156;2022-11-20T13:08:40;1.10;99.90
15274;DHT22;7738;49.532;11.156;2022-11-20T13:11:18;1.10;99.90
15274;DHT22;7738;49.532;11.156;2022-11-20T13:14:07;1.10;99.90
15274;DHT22;7738;49.532;11.156;2022-11-20T13:16:47;1.10;99.90
15274;DHT22;7738;49.532;11.156;2022-11-20T13:24:22;1.10;99.90
15274;DHT22;7738;49.532;11.156;2022-11-20T13:27:17;1.10;99.90
15274;DHT22;7738;49.532;11.156;2022-11-20T13:30:03;1.10;99.90
15274;DHT22;7738;49.532;11.156;2022-11-20T13:35:30;1.10;99.90
15274;DHT22;7738;49.532;11.156;2022-11-20T13:38:06;1.10;99.90
15274;DHT22;7738;49.532;11.156;2022-11-20T13:40:50;1.10;99.90
15274;DHT22;7738;49.532;11.156;2022-11-20T13:43:36;1.20;99.90
15274;DHT22;7738;49.532;11.156;2022-11-20T13:46:09;1.20;99.90
15274;DHT22;7738;49.532;11.156;2022-11-20T13:48:41;1.20;99.90
15274;DHT22;7738;49.532;11.156;2022-11-20T13:51:26;1.10;99.90
15274;DHT22;7738;49.532;11.156;2022-11-20T13:54:24;1.10;99.90
15274;DHT22;7738;49.532;11.156;2022-11-20T13:57:04;1.10;99.90
15274;DHT22;7738;49.532;11.156;2022-11-20T13:59:49;1.10;99.90
15274;DHT22;7738;49.532;11.156;2022-11-20T14:02:25;1.10;99.90
15274;DHT22;7738;49.532;11.156;2022-11-20T14:04:58;0.90;99.90
15274;DHT22;7738;49.532;11.156;2022-11-20T14:07:35;1.10;99.90
15274;DHT22;7738;49.532;11.156;2022-11-20T14:10:20;1.10;99.90
15274;DHT22;7738;49.532;11.156;2022-11-20T14:15:34;1.00;99.90
15274;DHT22;7738;49.532;11.156;2022-11-20T14:18:13;1.00;99.90
15274;DHT22;7738;49.532;11.156;2022-11-20T14:23:23;1.00;99.90
15274;DHT22;7738;49.532;11.156;2022-11-20T14:28:27;1.00;99.90
15274;DHT22;7738;49.532;11.156;2022-11-20T14:31:01;1.00;99.90
15274;DHT22;7738;49.532;11.156;2022-11-20T14:33:32;1.00;99.90
15274;DHT22;7738;49.532;11.156;2022-11-20T14:48:44;1.10;99.90
15274;DHT22;7738;49.532;11.156;2022-11-20T14:51:30;0.90;99.90
15274;DHT22;7738;49.532;11.156;2022-11-20T14:54:09;1.40;99.90
15274;DHT22;7738;49.532;11.156;2022-11-20T15:01:54;1.10;99.90
15274;DHT22;7738;49.532;11.156;2022-11-20T15:06:57;1.10;99.90
15274;DHT22;7738;49.532;11.156;2022-11-20T15:12:00;1.10;99.90
15274;DHT22;7738;49.532;11.156;2022-11-20T15:17:07;1.10;99.90
15274;DHT22;7738;49.532;11.156;2022-11-20T15:22:12;1.20;99.90
15274;DHT22;7738;49.532;11.156;2022-11-20T15:32:16;1.20;99.90
15274;DHT22;7738;49.532;11.156;2022-11-20T15:47:29;1.20;99.90
15274;DHT22;7738;49.532;11.156;2022-11-20T15:55:09;1.10;99.90
15274;DHT22;7738;49.532;11.156;2022-11-20T15:57:40;1.20;99.90
15274;DHT22;7738;49.532;11.156;2022-11-20T16:00:11;1.10;99.90
15274;DHT22;7738;49.532;11.156;2022-11-20T16:02:51;1.20;99.90
15274;DHT22;7738;49.532;11.156;2022-11-20T16:05:21;1.30;99.90
15274;DHT22;7738;49.532;11.156;2022-11-20T16:07:53;1.00;99.90
15274;DHT22;7738;49.532;11.156;2022-11-20T16:10:23;1.40;99.90
15274;DHT22;7738;49.532;11.156;2022-11-20T16:12:53;1.40;99.90
15274;DHT22;7738;49.532;11.156;2022-11-20T16:18:19;1.30;99.90
15274;DHT22;7738;49.532;11.156;2022-11-20T16:20:51;1.30;99.90
15274;DHT22;7738;49.532;11.156;2022-11-20T16:28:23;1.20;99.90
15274;DHT22;7738;49.532;11.156;2022-11-20T16:30:53;1.30;99.90
15274;DHT22;7738;49.532;11.156;2022-11-20T16:33:26;1.40;99.90
15274;DHT22;7738;49.532;11.156;2022-11-20T16:41:00;1.40;99.90
15274;DHT22;7738;49.532;11.156;2022-11-20T16:43:30;0.90;99.90
15274;DHT22;7738;49.532;11.156;2022-11-20T16:46:03;0.90;99.90
15274;DHT22;7738;49.532;11.156;2022-11-20T16:48:36;1.10;99.90
15274;DHT22;7738;49.532;11.156;2022-11-20T16:51:08;1.10;99.90
15274;DHT22;7738;49.532;11.156;2022-11-20T16:53:39;1.00;99.90
15274;DHT22;7738;49.532;11.156;2022-11-20T16:56:10;1.10;99.90
15274;DHT22;7738;49.532;11.156;2022-11-20T17:01:14;0.90;99.90
15274;DHT22;7738;49.532;11.156;2022-11-20T17:03:53;0.80;99.90
15274;DHT22;7738;49.532;11.156;2022-11-20T17:06:24;1.00;99.90
15274;DHT22;7738;49.532;11.156;2022-11-20T17:08:55;0.80;99.90
15274;DHT22;7738;49.532;11.156;2022-11-20T17:11:26;1.90;99.90
15274;DHT22;7738;49.532;11.156;2022-11-20T17:13:57;1.10;99.90
15274;DHT22;7738;49.532;11.156;2022-11-20T17:16:30;1.10;99.90
15274;DHT22;7738;49.532;11.156;2022-11-20T17:19:03;1.10;99.90
15274;DHT22;7738;49.532;11.156;2022-11-20T17:21:35;0.90;99.90
15274;DHT22;7738;49.532;11.156;2022-11-20T17:24:07;1.60;99.90
15274;DHT22;7738;49.532;11.156;2022-11-20T17:26:38;4.20;99.90
15274;DHT22;7738;49.532;11.156;2022-11-20T17:29:11;1.10;99.90
15274;DHT22;7738;49.532;11.156;2022-11-20T17:31:42;1.00;99.90
15274;DHT22;7738;49.532;11.156;2022-11-20T17:34:17;1.00;99.90
15274;DHT22;7738;49.532;11.156;2022-11-20T17:44:32;0.80;99.90
15274;DHT22;7738;49.532;11.156;2022-11-20T17:47:02;0.80;99.90
15274;DHT22;7738;49.532;11.156;2022-11-20T17:49:35;0.80;99.90
15274;DHT22;7738;49.532;11.156;2022-11-20T17:54:35;0.70;99.90
15274;DHT22;7738;49.532;11.156;2022-11-20T17:57:05;0.50;99.90
15274;DHT22;7738;49.532;11.156;2022-11-20T18:02:18;0.80;99.90
15274;DHT22;7738;49.532;11.156;2022-11-20T18:04:51;0.50;99.90
15274;DHT22;7738;49.532;11.156;2022-11-20T18:07:22;0.70;99.90
15274;DHT22;7738;49.532;11.156;2022-11-20T18:09:52;0.50;99.90
15274;DHT22;7738;49.532;11.156;2022-11-20T18:12:22;0.60;99.90
15274;DHT22;7738;49.532;11.156;2022-11-20T18:14:52;0.60;99.90
15274;DHT22;7738;49.532;11.156;2022-11-20T18:17:22;1.20;99.90
15274;DHT22;7738;49.532;11.156;2022-11-20T18:19:55;0.80;99.90
15274;DHT22;7738;49.532;11.156;2022-11-20T18:25:16;0.60;99.90
15274;DHT22;7738;49.532;11.156;2022-11-20T18:27:46;0.10;99.90
15274;DHT22;7738;49.532;11.156;2022-11-20T18:30:17;0.60;99.90
15274;DHT22;7738;49.532;11.156;2022-11-20T18:32:47;0.50;99.90
15274;DHT22;7738;49.532;11.156;2022-11-20T18:35:20;0.50;99.90
15274;DHT22;7738;49.532;11.156;2022-11-20T18:42:50;-0.20;99.90
15274;DHT22;7738;49.532;11.156;2022-11-20T18:50:38;0.60;99.90
15274;DHT22;7738;49.532;11.156;2022-11-20T18:58:09;0.50;99.90
15274;DHT22;7738;49.532;11.156;2022-11-20T19:03:09;0.70;99.90
15274;DHT22;7738;49.532;11.156;2022-11-20T19:05:42;0.90;99.90
15274;DHT22;7738;49.532;11.156;2022-11-20T19:08:12;0.80;99.90
15274;DHT22;7738;49.532;11.156;2022-11-20T19:10:42;0.70;99.90
15274;DHT22;7738;49.532;11.156;2022-11-20T19:20:46;1.20;99.90
15274;DHT22;7738;49.532;11.156;2022-11-20T19:23:16;1.00;99.90
15274;DHT22;7738;49.532;11.156;2022-11-20T19:30:48;1.10;99.90
15274;DHT22;7738;49.532;11.156;2022-11-20T19:35:52;1.00;99.90
15274;DHT22;7738;49.532;11.156;2022-11-20T19:38:22;1.10;99.90
15274;DHT22;7738;49.532;11.156;2022-11-20T19:40:52;1.20;99.90
15274;DHT22;7738;49.532;11.156;2022-11-20T19:43:22;0.90;99.90
15274;DHT22;7738;49.532;11.156;2022-11-20T19:48:22;1.20;99.90
15274;DHT22;7738;49.532;11.156;2022-11-20T19:50:55;1.10;99.90
15274;DHT22;7738;49.532;11.156;2022-11-20T19:53:25;1.30;99.90
15274;DHT22;7738;49.532;11.156;2022-11-20T19:55:56;1.00;99.90
15274;DHT22;7738;49.532;11.156;2022-11-20T19:58:27;1.40;99.90
15274;DHT22;7738;49.532;11.156;2022-11-20T20:03:27;0.90;99.90
15274;DHT22;7738;49.532;11.156;2022-11-20T20:06:04;1.10;99.90
15274;DHT22;7738;49.532;11.156;2022-11-20T20:08:34;1.30;99.90
15274;DHT22;7738;49.532;11.156;2022-11-20T20:11:11;2.00;99.90
15274;DHT22;7738;49.532;11.156;2022-11-20T20:13:42;1.30;99.90
15274;DHT22;7738;49.532;11.156;2022-11-20T20:16:14;1.10;99.90
15274;DHT22;7738;49.532;11.156;2022-11-20T20:18:45;1.00;99.90
15274;DHT22;7738;49.532;11.156;2022-11-20T20:21:18;1.50;99.90
15274;DHT22;7738;49.532;11.156;2022-11-20T20:23:50;1.30;99.90
15274;DHT22;7738;49.532;11.156;2022-11-20T20:26:21;1.40;99.90
15274;DHT22;7738;49.532;11.156;2022-11-20T20:28:52;1.50;99.90
15274;DHT22;7738;49.532;11.156;2022-11-20T20:31:24;1.60;99.90
15274;DHT22;7738;49.532;11.156;2022-11-20T20:33:55;1.70;99.90
15274;DHT22;7738;49.532;11.156;2022-11-20T20:36:28;1.30;99.90
15274;DHT22;7738;49.532;11.156;2022-11-20T20:41:29;1.50;99.90
15274;DHT22;7738;49.532;11.156;2022-11-20T20:44:00;1.50;99.90
15274;DHT22;7738;49.532;11.156;2022-11-20T20:46:43;1.60;99.90
15274;DHT22;7738;49.532;11.156;2022-11-20T20:49:13;1.60;99.90
15274;DHT22;7738;49.532;11.156;2022-11-20T20:51:45;1.80;99.90
15274;DHT22;7738;49.532;11.156;2022-11-20T20:54:16;2.10;99.90
15274;DHT22;7738;49.532;11.156;2022-11-20T20:56:46;1.80;99.90
15274;DHT22;7738;49.532;11.156;2022-11-20T20:59:16;1.80;99.90
15274;DHT22;7738;49.532;11.156;2022-11-20T21:04:17;2.30;99.90
15274;DHT22;7738;49.532;11.156;2022-11-20T21:06:49;1.90;99.90
15274;DHT22;7738;49.532;11.156;2022-11-20T21:09:19;1.80;99.90
15274;DHT22;7738;49.532;11.156;2022-11-20T21:11:50;2.00;99.90
15274;DHT22;7738;49.532;11.156;2022-11-20T21:14:20;2.30;99.90
15274;DHT22;7738;49.532;11.156;2022-11-20T21:16:51;2.10;99.90
15274;DHT22;7738;49.532;11.156;2022-11-20T21:19:21;2.20;99.90
15274;DHT22;7738;49.532;11.156;2022-11-20T21:21:53;2.40;99.90
15274;DHT22;7738;49.532;11.156;2022-11-20T21:24:29;3.20;99.90
15274;DHT22;7738;49.532;11.156;2022-11-20T21:27:01;2.30;99.90
15274;DHT22;7738;49.532;11.156;2022-11-20T21:34:32;2.00;99.90
15274;DHT22;7738;49.532;11.156;2022-11-20T21:37:05;2.20;99.90
15274;DHT22;7738;49.532;11.156;2022-11-20T21:42:16;2.40;99.90
15274;DHT22;7738;49.532;11.156;2022-11-20T21:44:46;2.10;99.90
15274;DHT22;7738;49.532;11.156;2022-11-20T21:47:16;2.20;99.90
15274;DHT22;7738;49.532;11.156;2022-11-20T21:49:46;2.50;99.90
15274;DHT22;7738;49.532;11.156;2022-11-20T21:52:19;2.30;99.90
15274;DHT22;7738;49.532;11.156;2022-11-20T21:54:49;2.60;99.90
15274;DHT22;7738;49.532;11.156;2022-11-20T21:59:49;2.50;99.90
15274;DHT22;7738;49.532;11.156;2022-11-20T22:04:50;2.30;99.90
15274;DHT22;7738;49.532;11.156;2022-11-20T22:07:22;2.20;99.90
15274;DHT22;7738;49.532;11.156;2022-11-20T22:09:52;2.30;99.90
15274;DHT22;7738;49.532;11.156;2022-11-20T22:12:22;2.50;99.90
15274;DHT22;7738;49.532;11.156;2022-11-20T22:17:20;2.40;99.90
15274;DHT22;7738;49.532;11.156;2022-11-20T22:20:10;2.20;99.90
15274;DHT22;7738;49.532;11.156;2022-11-20T22:22:43;2.20;99.90
15274;DHT22;7738;49.532;11.156;2022-11-20T22:27:45;2.20;99.90
15274;DHT22;7738;49.532;11.156;2022-11-20T22:30:15;2.00;99.90
15274;DHT22;7738;49.532;11.156;2022-11-20T22:37:50;2.20;99.90
15274;DHT22;7738;49.532;11.156;2022-11-20T22:40:20;2.40;99.90
15274;DHT22;7738;49.532;11.156;2022-11-20T22:42:50;2.40;99.90
15274;DHT22;7738;49.532;11.156;2022-11-20T22:45:20;1.70;99.90
15274;DHT22;7738;49.532;11.156;2022-11-20T22:47:50;2.30;99.90
15274;DHT22;7738;49.532;11.156;2022-11-20T22:52:53;2.50;99.90
15274;DHT22;7738;49.532;11.156;2022-11-20T22:55:23;2.30;99.90
15274;DHT22;7738;49.532;11.156;2022-11-20T22:57:53;2.50;99.90
15274;DHT22;7738;49.532;11.156;2022-11-20T23:00:23;2.60;99.90
15274;DHT22;7738;49.532;11.156;2022-11-20T23:05:23;2.30;99.90
15274;DHT22;7738;49.532;11.156;2022-11-20T23:07:56;2.40;99.90
15274;DHT22;7738;49.532;11.156;2022-11-20T23:10:26;2.40;99.90
15274;DHT22;7738;49.532;11.156;2022-11-20T23:12:56;2.60;99.90
15274;DHT22;7738;49.532;11.156;2022-11-20T23:15:26;2.50;99.90
15274;DHT22;7738;49.532;11.156;2022-11-20T23:17:56;2.50;99.90
15274;DHT22;7738;49.532;11.156;2022-11-20T23:20:26;2.40;99.90
15274;DHT22;7738;49.532;11.156;2022-11-20T23:22:59;2.70;99.90
15274;DHT22;7738;49.532;11.156;2022-11-20T23:30:29;2.40;99.90
15274;DHT22;7738;49.532;11.156;2022-11-20T23:32:59;3.00;99.90
15274;DHT22;7738;49.532;11.156;2022-11-20T23:38:02;2.40;99.90
15274;DHT22;7738;49.532;11.156;2022-11-20T23:40:33;2.30;99.90
15274;DHT22;7738;49.532;11.156;2022-11-20T23:45:45;2.40;99.90
15274;DHT22;7738;49.532;11.156;2022-11-20T23:48:16;2.30;99.90
15274;DHT22;7738;49.532;11.156;2022-11-20T23:50:46;2.40;99.90
15274;DHT22;7738;49.532;11.156;2022-11-20T23:53:19;2.50;99.90
15274;DHT22;7738;49.532;11.156;2022-11-20T23:55:50;2.40;99.90
15274;DHT22;7738;49.532;11.156;2022-11-20T23:58:22;2.40;99.90
